Time;durP1;ratioP1;P1;durP2;ratioP2;P2;SDS_P1;SDS_P2;PMS_P1;PMS_P2;Temp;Humidity;BMP_temperature;BMP_pressure;BME280_temperature;BME280_humidity;BME280_pressure;Samples;Min_cycle;Max_cycle;Signal;HPM_P1;HPM_P2
2023/04/12 00:00:35;;;;;;;2.42;1.10;;;;;;;;;;5045287;28;20557;-70
2023/04/12 00:03:06;;;;;;;2.30;1.23;;;;;;;;;;5044528;28;20055;-70
2023/04/12 00:05:33;;;;;;;4.05;1.02;;;;;;;;;;5043512;28;20048;-70
2023/04/12 00:08:03;;;;;;;5.20;1.40;;;;;;;;;;5044656;28;20071;-70
2023/04/12 00:10:30;;;;;;;4.05;0.98;;;;;;;;;;5044368;28;20056;-70
2023/04/12 00:12:56;;;;;;;2.88;1.08;;;;;;;;;;5044011;28;20124;-70
2023/04/12 00:15:22;;;;;;;2.67;1.13;;;;;;;;;;5045279;28;20108;-70
2023/04/12 00:17:48;;;;;;;1.95;1.00;;;;;;;;;;5044554;28;20059;-70
2023/04/12 00:20:15;;;;;;;1.48;0.88;;;;;;;;;;5045129;28;20059;-70
2023/04/12 00:22:41;;;;;;;3.55;0.88;;;;;;;;;;5045592;28;20084;-70
2023/04/12 00:25:08;;;;;;;2.03;1.13;;;;;;;;;;5043679;28;20597;-70
2023/04/12 00:27:34;;;;;;;1.52;0.88;;;;;;;;;;5043810;28;20053;-70
2023/04/12 00:30:00;;;;;;;2.08;0.60;;;;;;;;;;5044559;28;20124;-70
2023/04/12 00:32:27;;;;;;;2.55;0.80;;;;;;;;;;5042822;28;20128;-70
2023/04/12 00:34:53;;;;;;;2.97;1.25;;;;;;;;;;5043378;28;20079;-70
2023/04/12 00:37:19;;;;;;;2.42;0.95;;;;;;;;;;5045091;28;20040;-70
2023/04/12 00:39:45;;;;;;;1.92;1.20;;;;;;;;;;5044507;28;20106;-70
2023/04/12 00:42:11;;;;;;;3.38;1.20;;;;;;;;;;5044631;28;20384;-70
2023/04/12 00:44:37;;;;;;;2.25;1.00;;;;;;;;;;5044736;28;20052;-70
2023/04/12 00:47:04;;;;;;;2.03;1.10;;;;;;;;;;5043788;28;20465;-70
2023/04/12 00:49:30;;;;;;;8.20;1.80;;;;;;;;;;5044267;28;20041;-70
2023/04/12 00:51:58;;;;;;;3.28;1.10;;;;;;;;;;5043744;28;20053;-70
2023/04/12 00:54:25;;;;;;;2.92;1.52;;;;;;;;;;5044029;28;20055;-70
2023/04/12 00:56:51;;;;;;;3.33;1.23;;;;;;;;;;5041497;28;20045;-70
2023/04/12 00:59:17;;;;;;;2.95;1.20;;;;;;;;;;5044001;28;20115;-70
2023/04/12 01:01:44;;;;;;;2.75;1.17;;;;;;;;;;5044229;28;21005;-70
2023/04/12 01:04:12;;;;;;;3.83;1.50;;;;;;;;;;5043273;28;20037;-70
2023/04/12 01:06:41;;;;;;;4.35;1.52;;;;;;;;;;5044907;28;20091;-70
2023/04/12 01:09:08;;;;;;;2.42;1.15;;;;;;;;;;5041848;28;20055;-70
2023/04/12 01:11:38;;;;;;;2.70;1.25;;;;;;;;;;5043028;28;20060;-70
2023/04/12 01:14:29;;;;;;;2.95;1.50;;;;;;;;;;5041096;28;20041;-70
2023/04/12 01:16:57;;;;;;;3.10;1.60;;;;;;;;;;5043217;28;20411;-70
2023/04/12 01:19:35;;;;;;;2.08;1.20;;;;;;;;;;5042620;28;20098;-70
2023/04/12 01:22:06;;;;;;;4.05;1.25;;;;;;;;;;5040528;28;20041;-70
2023/04/12 01:24:42;;;;;;;2.90;1.55;;;;;;;;;;5042770;28;20542;-70
2023/04/12 01:27:12;;;;;;;4.68;1.90;;;;;;;;;;5042420;28;20090;-70
2023/04/12 01:29:39;;;;;;;4.38;1.88;;;;;;;;;;5042716;28;20084;-70
2023/04/12 01:32:06;;;;;;;5.43;2.20;;;;;;;;;;5043329;28;20528;-70
2023/04/12 01:34:33;;;;;;;3.88;1.38;;;;;;;;;;5043778;28;20045;-70
2023/04/12 01:37:01;;;;;;;6.75;1.90;;;;;;;;;;5042831;28;20049;-70
2023/04/12 01:39:29;;;;;;;4.93;1.88;;;;;;;;;;5043715;28;20401;-70
2023/04/12 01:41:55;;;;;;;4.95;1.83;;;;;;;;;;5043107;28;20329;-70
2023/04/12 01:44:22;;;;;;;5.32;2.08;;;;;;;;;;5043494;28;20041;-70
2023/04/12 01:46:48;;;;;;;3.05;1.45;;;;;;;;;;5043282;28;20202;-70
2023/04/12 01:49:15;;;;;;;4.22;2.03;;;;;;;;;;5043556;28;20059;-70
2023/04/12 01:51:50;;;;;;;4.90;2.30;;;;;;;;;;5043179;28;20163;-70
2023/04/12 01:54:18;;;;;;;7.47;2.25;;;;;;;;;;5043752;28;20102;-70
2023/04/12 01:56:46;;;;;;;3.38;1.83;;;;;;;;;;5040120;28;20057;-70
2023/04/12 01:59:15;;;;;;;7.68;2.13;;;;;;;;;;5044180;28;20048;-70
2023/04/12 02:01:42;;;;;;;3.30;1.75;;;;;;;;;;5043918;28;20094;-70
2023/04/12 02:04:09;;;;;;;3.47;1.58;;;;;;;;;;5042375;28;20049;-70
2023/04/12 02:06:36;;;;;;;6.13;2.30;;;;;;;;;;5043517;28;20048;-70
2023/04/12 02:09:02;;;;;;;8.30;2.17;;;;;;;;;;5042974;28;20053;-70
2023/04/12 02:11:29;;;;;;;6.68;1.88;;;;;;;;;;5041281;28;20094;-70
2023/04/12 02:13:55;;;;;;;6.25;1.75;;;;;;;;;;5042612;28;20132;-70
2023/04/12 02:16:21;;;;;;;4.75;1.90;;;;;;;;;;5041988;28;20040;-70
2023/04/12 02:18:48;;;;;;;6.07;1.90;;;;;;;;;;5041678;28;20126;-70
2023/04/12 02:21:14;;;;;;;4.25;1.83;;;;;;;;;;5043795;28;20045;-70
2023/04/12 02:23:42;;;;;;;6.93;1.85;;;;;;;;;;5041241;28;20076;-70
2023/04/12 02:26:08;;;;;;;5.95;1.77;;;;;;;;;;5042186;28;20049;-70
2023/04/12 02:28:36;;;;;;;12.00;2.53;;;;;;;;;;5043115;28;20403;-70
2023/04/12 02:31:03;;;;;;;5.55;2.15;;;;;;;;;;5041036;28;20241;-70
2023/04/12 02:33:29;;;;;;;3.75;1.55;;;;;;;;;;5041624;28;20138;-70
2023/04/12 02:36:01;;;;;;;4.55;1.88;;;;;;;;;;5042558;28;20045;-70
2023/04/12 02:38:27;;;;;;;7.35;2.10;;;;;;;;;;5042312;28;20048;-70
2023/04/12 02:40:53;;;;;;;3.95;2.03;;;;;;;;;;5042884;28;20208;-70
2023/04/12 02:43:19;;;;;;;4.80;1.40;;;;;;;;;;5046497;28;20052;-70
2023/04/12 02:45:46;;;;;;;3.05;1.50;;;;;;;;;;5046770;28;20041;-70
2023/04/12 02:48:12;;;;;;;3.90;1.40;;;;;;;;;;5047404;28;20053;-70
2023/04/12 02:50:38;;;;;;;5.68;1.30;;;;;;;;;;5046659;28;20454;-70
2023/04/12 02:53:04;;;;;;;7.65;1.48;;;;;;;;;;5045745;28;20489;-70
2023/04/12 02:55:30;;;;;;;3.17;1.45;;;;;;;;;;5047285;28;20128;-70
2023/04/12 02:57:57;;;;;;;5.05;1.77;;;;;;;;;;5046029;28;20047;-70
2023/04/12 03:00:23;;;;;;;3.75;1.08;;;;;;;;;;5046208;28;20086;-70
2023/04/12 03:02:50;;;;;;;3.15;1.42;;;;;;;;;;5046516;28;20053;-70
2023/04/12 03:05:16;;;;;;;2.35;1.45;;;;;;;;;;5046783;28;20163;-70
2023/04/12 03:07:43;;;;;;;7.53;2.17;;;;;;;;;;5046314;28;20053;-70
2023/04/12 03:10:10;;;;;;;6.63;2.05;;;;;;;;;;5044225;28;20737;-70
2023/04/12 03:12:36;;;;;;;4.57;1.30;;;;;;;;;;5046375;28;20503;-70
2023/04/12 03:15:03;;;;;;;3.20;1.50;;;;;;;;;;5043655;28;20098;-70
2023/04/12 03:17:29;;;;;;;1.83;0.90;;;;;;;;;;5044985;28;20053;-70
2023/04/12 03:19:56;;;;;;;2.15;1.30;;;;;;;;;;5045760;28;20045;-70
2023/04/12 03:22:24;;;;;;;3.28;1.50;;;;;;;;;;5044418;28;20068;-70
2023/04/12 03:24:50;;;;;;;2.22;1.10;;;;;;;;;;5044515;28;20049;-70
2023/04/12 03:27:16;;;;;;;4.22;1.58;;;;;;;;;;5045492;28;20402;-70
2023/04/12 03:29:42;;;;;;;3.17;1.40;;;;;;;;;;5045026;28;20063;-70
2023/04/12 03:32:09;;;;;;;2.58;1.25;;;;;;;;;;5043757;28;20052;-70
2023/04/12 03:34:35;;;;;;;3.70;1.73;;;;;;;;;;5045675;28;20372;-70
2023/04/12 03:37:01;;;;;;;4.13;1.30;;;;;;;;;;5045398;28;20045;-71
2023/04/12 03:39:27;;;;;;;2.97;1.40;;;;;;;;;;5046094;28;20045;-70
2023/04/12 03:41:54;;;;;;;6.75;1.95;;;;;;;;;;5043526;28;20364;-70
2023/04/12 03:44:20;;;;;;;2.78;1.45;;;;;;;;;;5043962;28;20120;-70
2023/04/12 03:46:47;;;;;;;5.18;1.58;;;;;;;;;;5045882;28;20487;-70
2023/04/12 03:49:13;;;;;;;3.80;1.85;;;;;;;;;;5043956;28;20060;-70
2023/04/12 03:51:42;;;;;;;3.95;1.48;;;;;;;;;;5045794;28;20053;-70
2023/04/12 03:54:12;;;;;;;3.00;1.42;;;;;;;;;;5043080;28;20391;-70
2023/04/12 03:56:38;;;;;;;3.67;1.17;;;;;;;;;;5043270;28;20048;-70
2023/04/12 03:59:08;;;;;;;3.17;1.38;;;;;;;;;;5043279;28;20052;-70
2023/04/12 04:01:34;;;;;;;2.67;1.50;;;;;;;;;;5043958;28;20045;-70
2023/04/12 04:04:00;;;;;;;3.90;1.55;;;;;;;;;;5042973;28;20063;-70
2023/04/12 04:06:28;;;;;;;1.85;1.10;;;;;;;;;;5046065;28;20033;-70
2023/04/12 04:08:54;;;;;;;3.22;1.50;;;;;;;;;;5043560;28;20081;-70
2023/04/12 04:11:20;;;;;;;3.13;1.30;;;;;;;;;;5040785;28;20397;-70
2023/04/12 04:13:46;;;;;;;4.13;1.25;;;;;;;;;;5045037;28;20059;-70
2023/04/12 04:16:12;;;;;;;2.92;1.30;;;;;;;;;;5044219;28;20049;-70
2023/04/12 04:18:38;;;;;;;1.63;1.15;;;;;;;;;;5044375;28;20044;-70
2023/04/12 04:21:06;;;;;;;2.83;1.42;;;;;;;;;;5044275;28;20419;-70
2023/04/12 04:23:37;;;;;;;2.05;1.40;;;;;;;;;;5045154;28;20163;-70
2023/04/12 04:26:09;;;;;;;3.33;1.15;;;;;;;;;;5043771;28;20061;-70
2023/04/12 04:28:37;;;;;;;;;;;;;;;;;;5045799;28;20049;-70
2023/04/12 04:31:05;;;;;;;3.17;1.70;;;;;;;;;;5043554;28;20010;-70
2023/04/12 04:33:34;;;;;;;4.85;1.42;;;;;;;;;;5045467;28;20041;-70
2023/04/12 04:36:01;;;;;;;3.40;1.80;;;;;;;;;;5041504;28;20041;-70
2023/04/12 04:38:27;;;;;;;5.93;2.10;;;;;;;;;;5040627;28;20044;-70
2023/04/12 04:40:54;;;;;;;4.55;2.15;;;;;;;;;;5041681;28;20423;-70
2023/04/12 04:43:20;;;;;;;6.90;2.40;;;;;;;;;;5043400;28;20049;-70
2023/04/12 04:45:49;;;;;;;6.28;1.60;;;;;;;;;;5042063;28;20044;-70
2023/04/12 04:48:15;;;;;;;3.20;2.05;;;;;;;;;;5041671;28;20044;-70
2023/04/12 04:50:42;;;;;;;5.32;2.22;;;;;;;;;;5044052;28;20045;-70
2023/04/12 04:53:08;;;;;;;6.50;2.25;;;;;;;;;;5040474;28;20122;-70
2023/04/12 04:55:34;;;;;;;3.47;1.80;;;;;;;;;;5042841;28;20048;-70
2023/04/12 04:58:00;;;;;;;5.53;1.95;;;;;;;;;;5042189;28;20041;-69
2023/04/12 05:00:26;;;;;;;3.72;2.00;;;;;;;;;;5041052;28;20049;-70
2023/04/12 05:02:52;;;;;;;3.72;2.00;;;;;;;;;;5041233;28;20060;-70
2023/04/12 05:05:21;;;;;;;3.58;2.17;;;;;;;;;;5039929;28;20057;-70
2023/04/12 05:07:48;;;;;;;9.60;2.35;;;;;;;;;;5042590;28;20067;-70
2023/04/12 05:10:14;;;;;;;5.15;2.22;;;;;;;;;;5043477;28;20044;-70
2023/04/12 05:12:40;;;;;;;3.08;1.70;;;;;;;;;;5043232;28;20044;-70
2023/04/12 05:15:06;;;;;;;3.40;1.60;;;;;;;;;;5041831;28;20051;-70
2023/04/12 05:17:35;;;;;;;3.00;1.90;;;;;;;;;;5043041;28;20049;-70
2023/04/12 05:20:04;;;;;;;3.95;1.95;;;;;;;;;;5042230;28;20044;-69
2023/04/12 05:22:31;;;;;;;1.98;1.55;;;;;;;;;;5039743;28;20438;-70
2023/04/12 05:24:57;;;;;;;3.83;1.48;;;;;;;;;;5042308;28;20045;-70
2023/04/12 05:27:23;;;;;;;2.92;1.80;;;;;;;;;;5042242;28;20063;-70
2023/04/12 05:29:49;;;;;;;3.63;2.03;;;;;;;;;;5042919;28;20032;-69
2023/04/12 05:32:15;;;;;;;3.55;2.13;;;;;;;;;;5042736;28;20095;-70
2023/04/12 05:34:42;;;;;;;3.63;2.00;;;;;;;;;;5042787;28;20589;-70
2023/04/12 05:37:08;;;;;;;2.45;1.92;;;;;;;;;;5042517;28;20044;-70
2023/04/12 05:39:34;;;;;;;4.53;2.03;;;;;;;;;;5045315;28;20045;-69
2023/04/12 05:42:00;;;;;;;2.63;2.13;;;;;;;;;;5040032;28;20045;-70
2023/04/12 05:44:26;;;;;;;5.53;2.15;;;;;;;;;;5042592;28;20365;-69
2023/04/12 05:46:53;;;;;;;3.92;2.10;;;;;;;;;;5042716;28;20055;-70
2023/04/12 05:49:19;;;;;;;2.90;1.98;;;;;;;;;;5042122;28;20055;-70
2023/04/12 05:51:45;;;;;;;4.60;2.15;;;;;;;;;;5042621;28;20090;-69
2023/04/12 05:54:11;;;;;;;2.10;1.90;;;;;;;;;;5042347;28;20041;-70
2023/04/12 05:56:37;;;;;;;2.53;1.83;;;;;;;;;;5040652;28;20061;-69
2023/04/12 05:59:04;;;;;;;5.40;2.25;;;;;;;;;;5039015;28;20044;-70
2023/04/12 06:01:33;;;;;;;6.10;2.60;;;;;;;;;;5042432;28;20048;-69
2023/04/12 06:04:04;;;;;;;5.78;2.40;;;;;;;;;;5041051;28;20110;-70
2023/04/12 06:06:30;;;;;;;2.20;1.90;;;;;;;;;;5040242;28;20094;-70
2023/04/12 06:09:01;;;;;;;3.45;2.47;;;;;;;;;;5040170;28;20433;-70
2023/04/12 06:11:27;;;;;;;2.65;2.17;;;;;;;;;;5040652;28;20049;-70
2023/04/12 06:13:54;;;;;;;4.00;2.60;;;;;;;;;;5041485;28;20451;-70
2023/04/12 06:16:20;;;;;;;7.13;2.13;;;;;;;;;;5044243;28;20049;-69
2023/04/12 06:18:46;;;;;;;4.18;2.00;;;;;;;;;;5046285;28;20041;-70
2023/04/12 06:21:12;;;;;;;5.95;2.53;;;;;;;;;;5046620;28;20037;-69
2023/04/12 06:23:38;;;;;;;4.55;2.15;;;;;;;;;;5045318;28;20059;-69
2023/04/12 06:26:04;;;;;;;3.83;2.30;;;;;;;;;;5044315;28;20083;-69
2023/04/12 06:28:30;;;;;;;6.32;2.42;;;;;;;;;;5046327;28;20049;-69
2023/04/12 06:30:56;;;;;;;4.57;2.00;;;;;;;;;;5044766;28;20075;-70
2023/04/12 06:33:22;;;;;;;4.93;2.08;;;;;;;;;;5045427;28;20107;-69
2023/04/12 06:35:49;;;;;;;3.35;2.67;;;;;;;;;;5045780;28;20041;-69
2023/04/12 06:38:16;;;;;;;3.20;2.10;;;;;;;;;;5045597;28;20049;-70
2023/04/12 06:40:42;;;;;;;4.50;2.30;;;;;;;;;;5043739;28;20049;-69
2023/04/12 06:43:08;;;;;;;4.05;1.77;;;;;;;;;;5044063;28;20049;-70
2023/04/12 06:45:34;;;;;;;4.85;2.20;;;;;;;;;;5041016;28;20651;-69
2023/04/12 06:48:00;;;;;;;2.42;2.08;;;;;;;;;;5042373;28;20087;-69
2023/04/12 06:50:26;;;;;;;2.85;2.00;;;;;;;;;;5045019;28;20057;-68
2023/04/12 06:52:52;;;;;;;5.38;1.88;;;;;;;;;;5043944;28;20468;-70
2023/04/12 06:55:18;;;;;;;8.75;2.28;;;;;;;;;;5045990;28;20052;-69
2023/04/12 06:57:45;;;;;;;2.65;1.85;;;;;;;;;;5045983;28;20078;-70
2023/04/12 07:00:11;;;;;;;4.40;1.88;;;;;;;;;;5045686;28;20045;-70
2023/04/12 07:02:37;;;;;;;2.22;1.50;;;;;;;;;;5045123;28;20109;-71
2023/04/12 07:05:04;;;;;;;2.67;1.30;;;;;;;;;;5045346;28;20049;-70
2023/04/12 07:07:30;;;;;;;4.85;1.80;;;;;;;;;;5044812;28;20053;-70
2023/04/12 07:09:56;;;;;;;2.92;2.03;;;;;;;;;;5039548;28;20040;-70
2023/04/12 07:12:22;;;;;;;2.85;1.55;;;;;;;;;;5040615;28;20052;-70
2023/04/12 07:14:48;;;;;;;3.25;1.58;;;;;;;;;;5043788;28;20048;-69
2023/04/12 07:17:14;;;;;;;3.58;1.88;;;;;;;;;;5042535;28;20067;-70
2023/04/12 07:19:40;;;;;;;7.95;2.30;;;;;;;;;;5043231;28;20048;-70
2023/04/12 07:22:07;;;;;;;3.35;1.52;;;;;;;;;;5044759;28;20049;-71
2023/04/12 07:24:33;;;;;;;2.45;1.70;;;;;;;;;;5044340;28;20080;-70
2023/04/12 07:26:59;;;;;;;3.08;2.13;;;;;;;;;;5040119;28;20063;-69
2023/04/12 07:29:25;;;;;;;2.00;1.60;;;;;;;;;;5041577;28;20056;-69
2023/04/12 07:31:51;;;;;;;3.00;1.95;;;;;;;;;;5043385;28;20053;-68
2023/04/12 07:34:17;;;;;;;3.42;2.20;;;;;;;;;;5042641;28;20037;-69
2023/04/12 07:36:43;;;;;;;1.60;1.50;;;;;;;;;;5046158;28;20061;-69
2023/04/12 07:39:11;;;;;;;3.78;2.50;;;;;;;;;;5045286;28;20392;-66
2023/04/12 07:41:38;;;;;;;2.25;1.90;;;;;;;;;;5045192;28;20136;-65
2023/04/12 07:44:04;;;;;;;4.13;2.10;;;;;;;;;;5041377;28;20056;-66
2023/04/12 07:46:30;;;;;;;1.83;1.50;;;;;;;;;;5037895;28;20411;-65
2023/04/12 07:48:56;;;;;;;2.40;1.65;;;;;;;;;;5033749;28;20041;-66
2023/04/12 07:51:22;;;;;;;5.40;2.45;;;;;;;;;;5040534;28;20052;-66
2023/04/12 07:53:49;;;;;;;3.40;1.85;;;;;;;;;;5042659;28;20480;-65
2023/04/12 07:56:15;;;;;;;2.35;1.48;;;;;;;;;;5046299;28;20132;-66
2023/04/12 07:58:41;;;;;;;1.92;1.45;;;;;;;;;;5043960;28;20056;-66
2023/04/12 08:01:07;;;;;;;2.28;1.50;;;;;;;;;;5044106;28;20053;-66
2023/04/12 08:03:33;;;;;;;2.25;1.60;;;;;;;;;;5045640;28;20057;-66
2023/04/12 08:05:59;;;;;;;1.83;1.73;;;;;;;;;;5045659;28;20761;-66
2023/04/12 08:08:25;;;;;;;1.50;1.40;;;;;;;;;;5044675;28;20053;-65
2023/04/12 08:10:52;;;;;;;5.43;1.83;;;;;;;;;;5042068;28;20479;-66
2023/04/12 08:13:18;;;;;;;1.80;1.70;;;;;;;;;;5044328;28;20411;-66
2023/04/12 08:15:46;;;;;;;1.73;1.55;;;;;;;;;;5046957;28;20122;-66
2023/04/12 08:18:12;;;;;;;1.40;1.30;;;;;;;;;;5046231;28;20052;-66
2023/04/12 08:20:42;;;;;;;2.53;1.77;;;;;;;;;;5045995;28;20143;-66
2023/04/12 08:23:09;;;;;;;2.58;1.65;;;;;;;;;;5045235;28;20049;-63
2023/04/12 08:25:35;;;;;;;1.85;1.73;;;;;;;;;;5046425;28;20052;-64
2023/04/12 08:28:02;;;;;;;1.73;1.60;;;;;;;;;;5046205;28;20063;-65
2023/04/12 08:30:28;;;;;;;2.60;2.10;;;;;;;;;;5043003;28;20045;-66
2023/04/12 08:32:55;;;;;;;2.72;2.47;;;;;;;;;;5045826;28;20548;-66
2023/04/12 08:35:21;;;;;;;1.90;1.70;;;;;;;;;;5045084;28;20460;-67
2023/04/12 08:37:48;;;;;;;3.40;1.83;;;;;;;;;;5042979;28;20049;-67
2023/04/12 08:40:14;;;;;;;1.45;1.30;;;;;;;;;;5044106;28;20049;-66
2023/04/12 08:42:40;;;;;;;1.27;1.27;;;;;;;;;;5044155;28;20049;-67
2023/04/12 08:45:07;;;;;;;1.65;1.55;;;;;;;;;;5038793;28;20560;-67
2023/04/12 08:47:34;;;;;;;1.63;1.52;;;;;;;;;;5030196;28;20124;-67
2023/04/12 08:50:01;;;;;;;1.98;1.77;;;;;;;;;;5039013;28;20479;-67
2023/04/12 08:52:27;;;;;;;2.42;1.95;;;;;;;;;;5037946;28;20159;-67
2023/04/12 08:54:54;;;;;;;1.83;1.73;;;;;;;;;;5035930;28;20121;-67
2023/04/12 08:57:21;;;;;;;2.22;1.88;;;;;;;;;;5032972;28;20090;-67
2023/04/12 08:59:49;;;;;;;1.58;1.48;;;;;;;;;;5036994;28;20041;-67
2023/04/12 09:02:15;;;;;;;2.17;1.92;;;;;;;;;;5038566;28;20053;-66
2023/04/12 09:04:51;;;;;;;2.67;2.47;;;;;;;;;;5038595;28;20128;-67
2023/04/12 09:07:17;;;;;;;3.15;2.17;;;;;;;;;;5040841;28;20045;-67
2023/04/12 09:09:44;;;;;;;2.47;2.28;;;;;;;;;;5041727;28;20504;-67
2023/04/12 09:12:10;;;;;;;3.95;2.78;;;;;;;;;;5034078;28;20067;-67
2023/04/12 09:14:37;;;;;;;2.90;2.70;;;;;;;;;;5035923;28;20099;-67
2023/04/12 09:17:03;;;;;;;3.03;2.72;;;;;;;;;;5038048;28;20110;-67
2023/04/12 09:19:34;;;;;;;4.97;3.00;;;;;;;;;;5036860;28;20087;-67
2023/04/12 09:22:00;;;;;;;2.65;2.45;;;;;;;;;;5039692;28;20053;-67
2023/04/12 09:24:27;;;;;;;3.00;2.30;;;;;;;;;;5044261;28;20045;-67
2023/04/12 09:27:02;;;;;;;2.72;2.50;;;;;;;;;;5042195;28;20052;-67
2023/04/12 09:29:29;;;;;;;2.22;2.03;;;;;;;;;;5039794;28;20099;-67
2023/04/12 09:32:05;;;;;;;2.22;2.03;;;;;;;;;;5036418;28;20416;-67
2023/04/12 09:34:32;;;;;;;2.53;2.33;;;;;;;;;;5036473;28;20557;-67
2023/04/12 09:36:58;;;;;;;2.53;2.33;;;;;;;;;;5039557;28;20098;-66
2023/04/12 09:39:33;;;;;;;2.58;1.80;;;;;;;;;;5037410;28;20073;-67
2023/04/12 09:42:06;;;;;;;3.13;2.22;;;;;;;;;;5039717;28;20037;-67
2023/04/12 09:44:33;;;;;;;3.58;2.75;;;;;;;;;;5035409;28;20047;-67
2023/04/12 09:47:01;;;;;;;2.67;2.47;;;;;;;;;;5033877;28;20057;-67
2023/04/12 09:49:42;;;;;;;5.70;2.78;;;;;;;;;;5044172;28;20116;-67
2023/04/12 09:52:10;;;;;;;2.60;2.35;;;;;;;;;;5041831;28;20103;-66
2023/04/12 09:54:48;;;;;;;3.08;2.53;;;;;;;;;;5021672;28;20107;-66
2023/04/12 09:57:16;;;;;;;3.78;2.85;;;;;;;;;;5029499;28;20052;-67
2023/04/12 09:59:43;;;;;;;2.75;2.50;;;;;;;;;;5028716;28;20052;-66
2023/04/12 10:02:14;;;;;;;2.33;2.22;;;;;;;;;;5023613;28;20375;-66
2023/04/12 10:04:41;;;;;;;4.28;2.70;;;;;;;;;;5026242;28;20131;-66
2023/04/12 10:07:07;;;;;;;5.25;2.67;;;;;;;;;;5043286;28;20091;-66
2023/04/12 10:09:34;;;;;;;4.88;3.22;;;;;;;;;;5044016;28;20084;-67
2023/04/12 10:12:02;;;;;;;2.97;2.67;;;;;;;;;;5032453;28;20128;-66
2023/04/12 10:14:28;;;;;;;3.22;2.63;;;;;;;;;;5029918;28;20046;-68
2023/04/12 10:16:58;;;;;;;2.35;2.15;;;;;;;;;;5035224;28;20041;-67
2023/04/12 10:19:28;;;;;;;3.47;2.67;;;;;;;;;;5041500;28;20515;-67
2023/04/12 10:21:55;;;;;;;3.42;2.50;;;;;;;;;;5041813;28;20542;-67
2023/04/12 10:24:22;;;;;;;2.92;2.28;;;;;;;;;;5043942;28;20045;-68
2023/04/12 10:26:49;;;;;;;4.38;1.90;;;;;;;;;;5042255;28;20449;-68
2023/04/12 10:29:25;;;;;;;3.58;2.28;;;;;;;;;;5034840;28;20550;-67
2023/04/12 10:31:51;;;;;;;3.10;2.80;;;;;;;;;;5036598;28;20132;-67
2023/04/12 10:34:17;;;;;;;2.78;1.90;;;;;;;;;;5036284;28;20045;-67
2023/04/12 10:36:52;;;;;;;4.07;2.60;;;;;;;;;;5030941;28;20064;-67
2023/04/12 10:39:34;;;;;;;3.30;2.28;;;;;;;;;;5031033;28;20077;-68
2023/04/12 10:42:19;;;;;;;5.88;2.13;;;;;;;;;;5035768;28;20057;-68
2023/04/12 10:44:45;;;;;;;3.35;1.90;;;;;;;;;;5022609;28;20049;-68
2023/04/12 10:47:11;;;;;;;6.05;2.50;;;;;;;;;;5036350;28;20041;-68
2023/04/12 10:49:38;;;;;;;6.85;2.63;;;;;;;;;;5040399;28;20053;-68
2023/04/12 10:52:04;;;;;;;4.20;1.83;;;;;;;;;;5034115;28;20523;-68
2023/04/12 10:54:33;;;;;;;5.18;2.17;;;;;;;;;;5041665;28;20124;-68
2023/04/12 10:56:59;;;;;;;3.63;1.75;;;;;;;;;;5042280;28;20111;-68
2023/04/12 10:59:26;;;;;;;6.28;1.55;;;;;;;;;;5037008;28;20569;-68
2023/04/12 11:02:04;;;;;;;4.90;1.67;;;;;;;;;;5037565;28;20076;-68
2023/04/12 11:04:30;;;;;;;2.38;1.35;;;;;;;;;;5039339;28;20041;-68
2023/04/12 11:07:00;;;;;;;2.40;1.23;;;;;;;;;;5044399;28;20091;-68
2023/04/12 11:09:26;;;;;;;2.50;1.25;;;;;;;;;;5046550;28;20377;-68
2023/04/12 11:11:56;;;;;;;5.70;1.80;;;;;;;;;;5043871;28;20090;-67
2023/04/12 11:14:30;;;;;;;2.03;1.13;;;;;;;;;;5042100;28;20091;-68
2023/04/12 11:17:07;;;;;;;1.35;0.80;;;;;;;;;;5041658;28;20110;-67
2023/04/12 11:19:49;;;;;;;2.80;1.20;;;;;;;;;;5036198;28;20563;-68
2023/04/12 11:22:16;;;;;;;1.60;0.85;;;;;;;;;;5033726;28;20099;-68
2023/04/12 11:24:47;;;;;;;1.27;0.90;;;;;;;;;;5027843;28;20125;-67
2023/04/12 11:27:15;;;;;;;3.83;1.35;;;;;;;;;;5026759;28;20041;-70
2023/04/12 11:29:42;;;;;;;1.23;0.98;;;;;;;;;;5026332;28;20054;-70
2023/04/12 11:32:14;;;;;;;3.35;1.42;;;;;;;;;;5027031;28;20057;-70
2023/04/12 11:34:41;;;;;;;4.97;1.77;;;;;;;;;;5027349;28;20052;-70
2023/04/12 11:37:07;;;;;;;11.43;2.38;;;;;;;;;;5025620;28;20084;-70
2023/04/12 11:39:33;;;;;;;7.22;2.00;;;;;;;;;;5027254;28;20427;-70
2023/04/12 11:42:02;;;;;;;9.65;2.10;;;;;;;;;;5026085;28;20491;-70
2023/04/12 11:44:29;;;;;;;5.25;2.08;;;;;;;;;;5027624;28;20051;-70
2023/04/12 11:46:55;;;;;;;5.97;2.60;;;;;;;;;;5026324;28;20045;-71
2023/04/12 11:49:22;;;;;;;7.50;2.15;;;;;;;;;;5025560;28;20069;-70
2023/04/12 11:51:48;;;;;;;5.97;2.03;;;;;;;;;;5026759;28;20503;-70
2023/04/12 11:54:15;;;;;;;6.10;1.80;;;;;;;;;;5025555;28;20646;-70
2023/04/12 11:56:41;;;;;;;6.85;2.38;;;;;;;;;;5038018;28;20048;-70
2023/04/12 11:59:07;;;;;;;6.65;1.73;;;;;;;;;;5025577;28;20053;-70
2023/04/12 12:01:34;;;;;;;4.78;1.77;;;;;;;;;;5032943;28;20057;-70
2023/04/12 12:04:00;;;;;;;2.60;1.52;;;;;;;;;;5036119;28;20045;-70
2023/04/12 12:06:26;;;;;;;5.80;1.67;;;;;;;;;;5026662;28;20103;-70
2023/04/12 12:08:53;;;;;;;6.13;2.45;;;;;;;;;;5038445;28;20076;-70
2023/04/12 12:11:20;;;;;;;6.57;2.15;;;;;;;;;;5045255;28;20531;-70
2023/04/12 12:13:56;;;;;;;8.40;1.88;;;;;;;;;;5046126;28;20514;-70
2023/04/12 12:16:26;;;;;;;8.65;2.40;;;;;;;;;;5044440;28;20060;-70
2023/04/12 12:18:53;;;;;;;13.07;2.50;;;;;;;;;;5035062;28;20408;-70
2023/04/12 12:21:19;;;;;;;7.05;2.53;;;;;;;;;;5025396;28;20511;-70
2023/04/12 12:23:46;;;;;;;8.18;1.80;;;;;;;;;;5026626;28;20073;-70
2023/04/12 12:26:38;;;;;;;10.30;2.25;;;;;;;;;;5027290;28;20091;-70
2023/04/12 12:29:04;;;;;;;6.32;1.80;;;;;;;;;;5021450;28;20057;-71
2023/04/12 12:31:32;;;;;;;5.97;1.67;;;;;;;;;;5026263;28;20080;-69
2023/04/12 12:33:59;;;;;;;7.63;2.35;;;;;;;;;;5044405;28;20499;-71
2023/04/12 12:36:32;;;;;;;9.00;1.98;;;;;;;;;;5030797;28;20053;-70
2023/04/12 12:39:09;;;;;;;10.95;2.35;;;;;;;;;;5040391;28;20044;-69
2023/04/12 12:41:36;;;;;;;7.20;2.65;;;;;;;;;;5035303;28;20819;-69
2023/04/12 12:44:02;;;;;;;9.35;2.15;;;;;;;;;;5039206;28;20403;-70
2023/04/12 12:46:29;;;;;;;8.25;2.10;;;;;;;;;;5039165;28;20037;-70
2023/04/12 12:48:54;;;;;;;7.55;2.13;;;;;;;;;;5037487;28;20123;-70
2023/04/12 12:51:20;;;;;;;7.38;2.00;;;;;;;;;;5042565;28;20439;-70
2023/04/12 12:53:47;;;;;;;8.27;2.47;;;;;;;;;;5041473;28;20037;-73
2023/04/12 12:56:13;;;;;;;6.93;2.13;;;;;;;;;;5040781;28;20045;-70
2023/04/12 12:58:40;;;;;;;10.45;2.70;;;;;;;;;;5037538;28;20044;-70
2023/04/12 13:01:06;;;;;;;11.70;2.83;;;;;;;;;;5038557;28;20515;-70
2023/04/12 13:03:33;;;;;;;6.90;2.03;;;;;;;;;;5034150;28;20107;-70
2023/04/12 13:05:59;;;;;;;3.67;1.73;;;;;;;;;;5037080;28;20117;-70
2023/04/12 13:08:25;;;;;;;5.57;1.90;;;;;;;;;;5035079;28;20075;-70
2023/04/12 13:10:52;;;;;;;5.55;2.05;;;;;;;;;;5040608;28;20045;-70
2023/04/12 13:13:18;;;;;;;9.70;1.90;;;;;;;;;;5044729;28;20121;-70
2023/04/12 13:15:47;;;;;;;6.70;2.25;;;;;;;;;;5038256;28;20041;-70
2023/04/12 13:18:16;;;;;;;6.50;2.20;;;;;;;;;;5041697;28;20475;-70
2023/04/12 13:20:42;;;;;;;7.30;2.33;;;;;;;;;;5039434;28;20368;-70
2023/04/12 13:23:09;;;;;;;6.88;2.50;;;;;;;;;;5036643;28;20041;-70
2023/04/12 13:25:35;;;;;;;6.53;2.20;;;;;;;;;;5037882;28;20575;-70
2023/04/12 13:28:01;;;;;;;6.88;2.08;;;;;;;;;;5036890;28;20045;-70
2023/04/12 13:30:27;;;;;;;6.10;2.10;;;;;;;;;;5035175;28;20518;-70
2023/04/12 13:32:54;;;;;;;7.50;1.85;;;;;;;;;;5034157;28;20083;-70
2023/04/12 13:35:20;;;;;;;8.63;2.22;;;;;;;;;;5030326;28;20049;-70
2023/04/12 13:37:46;;;;;;;11.95;2.53;;;;;;;;;;5036373;28;20079;-70
2023/04/12 13:40:12;;;;;;;4.22;1.65;;;;;;;;;;5039616;28;20040;-70
2023/04/12 13:42:38;;;;;;;10.60;2.20;;;;;;;;;;5039192;28;20513;-70
2023/04/12 13:45:05;;;;;;;3.20;1.63;;;;;;;;;;5034389;28;20065;-70
2023/04/12 13:47:32;;;;;;;4.88;1.77;;;;;;;;;;5033159;28;20124;-70
2023/04/12 13:49:59;;;;;;;3.63;1.27;;;;;;;;;;5035556;28;20036;-70
2023/04/12 13:52:25;;;;;;;3.42;1.30;;;;;;;;;;5039239;28;20060;-70
2023/04/12 13:54:51;;;;;;;4.57;1.20;;;;;;;;;;5036409;28;20047;-70
2023/04/12 13:57:17;;;;;;;6.03;1.50;;;;;;;;;;5038164;28;20400;-70
2023/04/12 13:59:43;;;;;;;3.58;1.20;;;;;;;;;;5035213;28;20040;-70
2023/04/12 14:02:09;;;;;;;4.40;1.20;;;;;;;;;;5035888;28;20279;-70
2023/04/12 14:04:35;;;;;;;4.40;1.20;;;;;;;;;;5035547;28;20049;-70
2023/04/12 14:07:01;;;;;;;5.85;1.27;;;;;;;;;;5040637;28;20074;-70
2023/04/12 14:09:28;;;;;;;4.15;1.05;;;;;;;;;;5036368;28;20111;-70
2023/04/12 14:11:55;;;;;;;5.22;1.30;;;;;;;;;;5037574;28;20057;-70
2023/04/12 14:14:21;;;;;;;4.05;1.00;;;;;;;;;;5037303;28;20038;-70
2023/04/12 14:16:49;;;;;;;4.40;1.30;;;;;;;;;;5027487;28;20053;-71
2023/04/12 14:19:15;;;;;;;3.03;1.25;;;;;;;;;;5028383;28;20143;-69
2023/04/12 14:21:41;;;;;;;7.70;1.70;;;;;;;;;;5042641;28;20049;-71
2023/04/12 14:24:07;;;;;;;5.20;1.40;;;;;;;;;;5042645;28;20410;-71
2023/04/12 14:26:33;;;;;;;5.22;1.65;;;;;;;;;;5044189;28;20049;-71
2023/04/12 14:28:59;;;;;;;5.47;1.75;;;;;;;;;;5043172;28;20060;-71
2023/04/12 14:31:25;;;;;;;2.92;1.10;;;;;;;;;;5043607;28;20053;-71
2023/04/12 14:33:52;;;;;;;8.43;1.60;;;;;;;;;;5043565;28;20052;-71
2023/04/12 14:36:18;;;;;;;3.15;1.20;;;;;;;;;;5043851;28;20091;-71
2023/04/12 14:38:44;;;;;;;4.18;1.33;;;;;;;;;;5046303;28;20056;-71
2023/04/12 14:41:11;;;;;;;2.95;1.15;;;;;;;;;;5045954;28;20182;-71
2023/04/12 14:43:37;;;;;;;5.32;1.52;;;;;;;;;;5044982;28;20495;-71